createdAt,value
2023-05-21T00:00:39.747Z,100.0000
2023-05-21T00:01:42.453Z,100.0000
2023-05-21T00:02:44.924Z,100.0000
2023-05-21T00:03:46.911Z,100.0000
2023-05-21T00:04:48.698Z,100.0000
2023-05-21T00:06:51.869Z,100.0000
2023-05-21T00:07:53.534Z,100.0000
2023-05-21T00:08:55.210Z,100.0000
2023-05-21T00:09:57.520Z,100.0000
2023-05-21T00:10:59.845Z,100.0000
2023-05-21T00:12:02.217Z,100.0000
2023-05-21T00:13:04.735Z,100.0000
2023-05-21T00:14:06.405Z,100.0000
2023-05-21T00:15:08.290Z,100.0000
2023-05-21T00:16:10.164Z,100.0000
2023-05-21T00:17:12.418Z,100.0000
2023-05-21T00:18:14.760Z,100.0000
2023-05-21T00:19:17.957Z,100.0000
2023-05-21T00:26:29.185Z,100.0000
2023-05-21T00:27:31.702Z,100.0000
2023-05-21T00:28:33.355Z,100.0000
2023-05-21T00:29:35.010Z,100.0000
2023-05-21T00:30:37.829Z,100.0000
2023-05-21T00:31:39.532Z,100.0000
2023-05-21T00:32:41.240Z,100.0000
2023-05-21T00:33:44.009Z,100.0000
2023-05-21T00:35:44.367Z,100.0000
2023-05-21T00:36:46.019Z,100.0000
2023-05-21T00:37:47.688Z,100.0000
2023-05-21T00:38:51.037Z,100.0000
2023-05-21T00:40:52.763Z,100.0000
2023-05-21T00:41:54.847Z,100.0000
2023-05-21T00:43:58.322Z,100.0000
2023-05-21T00:45:00.008Z,100.0000
2023-05-21T00:48:04.620Z,100.0000
2023-05-21T00:49:06.301Z,100.0000
2023-05-21T00:50:07.953Z,100.0000
2023-05-21T00:51:09.591Z,100.0000
2023-05-21T00:52:10.164Z,100.0000
2023-05-21T00:53:11.807Z,100.0000
2023-05-21T00:54:14.546Z,100.0000
2023-05-21T00:55:16.203Z,100.0000
2023-05-21T00:56:17.849Z,100.0000
2023-05-21T00:57:19.518Z,100.0000
2023-05-21T00:58:21.154Z,100.0000
2023-05-21T00:59:22.833Z,100.0000
2023-05-21T01:00:24.506Z,100.0000
2023-05-21T01:01:26.182Z,100.0000
2023-05-21T01:02:27.823Z,100.0000
2023-05-21T01:03:29.611Z,100.0000
2023-05-21T01:04:31.302Z,100.0000
2023-05-21T01:05:33.089Z,100.0000
2023-05-21T01:06:34.837Z,100.0000
2023-05-21T01:07:36.510Z,100.0000
2023-05-21T01:08:38.193Z,100.0000
2023-05-21T01:10:41.318Z,100.0000
2023-05-21T01:11:44.157Z,100.0000
2023-05-21T01:20:57.144Z,100.0000
2023-05-21T01:21:59.485Z,100.0000
2023-05-21T01:23:01.787Z,100.0000
2023-05-21T01:24:04.210Z,100.0000
2023-05-21T01:25:05.952Z,100.0000
2023-05-21T01:26:08.278Z,100.0000
2023-05-21T01:27:10.676Z,100.0000
2023-05-21T01:28:12.955Z,100.0000
2023-05-21T01:29:14.646Z,100.0000
2023-05-21T01:30:16.263Z,100.0000
2023-05-21T01:31:18.597Z,100.0000
2023-05-21T01:32:20.219Z,100.0000
2023-05-21T01:34:23.408Z,100.0000
2023-05-21T01:35:25.152Z,100.0000
2023-05-21T01:36:26.850Z,100.0000
2023-05-21T01:37:29.131Z,100.0000
2023-05-21T01:38:31.438Z,100.0000
2023-05-21T01:39:33.741Z,100.0000
2023-05-21T01:40:36.040Z,100.0000
2023-05-21T01:41:37.674Z,100.0000
2023-05-21T01:42:40.266Z,100.0000
2023-05-21T01:43:42.647Z,100.0000
2023-05-21T01:44:45.262Z,100.0000
2023-05-21T01:45:47.704Z,100.0000
2023-05-21T01:46:49.390Z,100.0000
2023-05-21T01:47:51.888Z,100.0000
2023-05-21T01:48:53.517Z,100.0000
2023-05-21T01:49:56.053Z,100.0000
2023-05-21T01:50:58.448Z,100.0000
2023-05-21T01:52:00.777Z,100.0000
2023-05-21T01:53:03.199Z,100.0000
2023-05-21T01:54:05.190Z,100.0000
2023-05-21T01:55:07.575Z,100.0000
2023-05-21T01:56:09.204Z,100.0000
2023-05-21T01:57:11.162Z,100.0000
2023-05-21T01:59:14.335Z,100.0000
2023-05-21T02:00:15.996Z,100.0000
2023-05-21T02:01:17.762Z,100.0000
2023-05-21T02:02:20.158Z,100.0000
2023-05-21T02:03:22.748Z,100.0000
2023-05-21T02:04:25.089Z,100.0000
2023-05-21T02:05:27.065Z,100.0000
2023-05-21T02:07:30.903Z,100.0000
2023-05-21T02:08:32.555Z,100.0000
2023-05-21T02:09:34.251Z,100.0000
2023-05-21T02:11:38.223Z,100.0000
2023-05-21T02:12:40.933Z,100.0000
2023-05-21T02:13:42.577Z,100.0000
2023-05-21T02:14:44.825Z,100.0000
2023-05-21T02:15:47.086Z,100.0000
2023-05-21T02:16:49.448Z,100.0000
2023-05-21T02:17:51.194Z,100.0000
2023-05-21T02:18:52.852Z,100.0000
2023-05-21T02:19:54.470Z,100.0000
2023-05-21T02:20:56.117Z,100.0000
2023-05-21T02:21:57.816Z,100.0000
2023-05-21T02:22:59.421Z,100.0000
2023-05-21T02:24:02.399Z,100.0000
2023-05-21T02:25:07.226Z,100.0000
2023-05-21T02:32:13.077Z,100.0000
2023-05-21T02:33:14.779Z,100.0000
2023-05-21T02:34:16.451Z,100.0000
2023-05-21T02:35:18.097Z,100.0000
2023-05-21T02:36:19.768Z,100.0000
2023-05-21T02:37:21.454Z,100.0000
2023-05-21T02:38:23.240Z,100.0000
2023-05-21T02:39:24.940Z,100.0000
2023-05-21T02:40:26.589Z,100.0000
2023-05-21T02:41:28.241Z,100.0000
2023-05-21T02:42:30.532Z,100.0000
2023-05-21T02:43:32.874Z,100.0000
2023-05-21T02:44:34.551Z,100.0000
2023-05-21T02:45:36.456Z,100.0000
2023-05-21T02:46:38.830Z,100.0000
2023-05-21T02:47:41.448Z,100.0000
2023-05-21T02:48:43.848Z,100.0000
2023-05-21T02:49:46.573Z,100.0000
2023-05-21T02:50:48.194Z,100.0000
2023-05-21T02:51:49.859Z,100.0000
2023-05-21T02:52:51.519Z,100.0000
2023-05-21T02:53:53.440Z,100.0000
2023-05-21T02:54:55.101Z,100.0000
2023-05-21T02:56:59.738Z,100.0000
2023-05-21T03:03:06.843Z,100.0000
2023-05-21T03:04:09.083Z,100.0000
2023-05-21T03:05:10.717Z,100.0000
2023-05-21T03:06:12.367Z,100.0000
2023-05-21T03:08:16.162Z,100.0000
2023-05-21T03:09:17.867Z,100.0000
2023-05-21T03:10:19.553Z,100.0000
2023-05-21T03:12:23.970Z,100.0000
2023-05-21T03:13:25.635Z,100.0000
2023-05-21T03:14:27.309Z,100.0000
2023-05-21T03:15:28.952Z,100.0000
2023-05-21T03:16:30.606Z,100.0000
2023-05-21T03:18:34.697Z,100.0000
2023-05-21T03:21:39.409Z,100.0000
2023-05-21T03:22:42.406Z,100.0000
2023-05-21T03:25:45.051Z,100.0000
2023-05-21T03:26:47.388Z,100.0000
2023-05-21T03:27:49.752Z,100.0000
2023-05-21T03:28:51.403Z,100.0000
2023-05-21T03:29:53.102Z,100.0000
2023-05-21T03:30:54.897Z,100.0000
2023-05-21T03:31:56.714Z,100.0000
2023-05-21T03:32:58.457Z,100.0000
2023-05-21T03:34:00.697Z,100.0000
2023-05-21T03:35:02.389Z,100.0000
2023-05-21T03:36:04.082Z,100.0000
2023-05-21T03:38:07.331Z,100.0000
2023-05-21T03:39:09.061Z,100.0000
2023-05-21T03:40:10.763Z,100.0000
2023-05-21T03:41:12.467Z,100.0000
2023-05-21T03:43:15.698Z,100.0000
2023-05-21T03:44:17.421Z,100.0000
2023-05-21T03:45:20.243Z,100.0000
2023-05-21T03:55:35.691Z,100.0000
2023-05-21T03:56:37.475Z,100.0000
2023-05-21T03:57:39.147Z,100.0000
2023-05-21T03:58:40.860Z,100.0000
2023-05-21T03:59:42.510Z,100.0000
2023-05-21T04:00:44.198Z,100.0000
2023-05-21T04:01:45.890Z,100.0000
2023-05-21T04:02:47.688Z,100.0000
2023-05-21T04:03:50.214Z,100.0000
2023-05-21T04:04:52.220Z,100.0000
2023-05-21T04:05:53.910Z,100.0000
2023-05-21T04:06:55.565Z,100.0000
2023-05-21T04:07:57.838Z,100.0000
2023-05-21T04:09:00.359Z,100.0000
2023-05-21T04:10:03.175Z,100.0000
2023-05-21T04:11:04.873Z,100.0000
2023-05-21T04:12:06.574Z,100.0000
2023-05-21T04:13:08.260Z,100.0000
2023-05-21T04:15:11.795Z,100.0000
2023-05-21T04:16:13.550Z,100.0000
2023-05-21T04:18:16.797Z,100.0000
2023-05-21T04:19:18.609Z,100.0000
2023-05-21T04:20:20.594Z,100.0000
2023-05-21T04:22:24.524Z,100.0000
2023-05-21T04:23:27.186Z,100.0000
2023-05-21T04:24:28.909Z,100.0000
2023-05-21T04:25:30.654Z,100.0000
2023-05-21T04:26:32.336Z,100.0000
2023-05-21T04:27:34.806Z,100.0000
2023-05-21T04:28:37.108Z,100.0000
2023-05-21T04:29:38.809Z,100.0000
2023-05-21T04:30:40.516Z,100.0000
2023-05-21T04:31:42.964Z,100.0000
2023-05-21T04:32:44.757Z,100.0000
2023-05-21T04:33:46.420Z,100.0000
2023-05-21T04:34:48.128Z,100.0000
2023-05-21T04:35:50.899Z,100.0000
2023-05-21T04:44:03.968Z,100.0000
2023-05-21T04:45:06.360Z,100.0000
2023-05-21T04:46:08.034Z,100.0000
2023-05-21T04:47:09.784Z,100.0000
2023-05-21T04:48:12.323Z,100.0000
2023-05-21T04:49:14.054Z,100.0000
2023-05-21T04:50:15.706Z,100.0000
2023-05-21T04:51:18.060Z,100.0000
2023-05-21T04:52:19.759Z,100.0000
2023-05-21T04:53:21.461Z,100.0000
2023-05-21T04:54:23.170Z,100.0000
2023-05-21T04:55:25.665Z,100.0000
2023-05-21T04:56:28.031Z,100.0000
2023-05-21T04:57:29.730Z,100.0000
2023-05-21T04:58:31.446Z,100.0000
2023-05-21T04:59:33.759Z,100.0000
2023-05-21T05:00:36.082Z,100.0000
2023-05-21T05:01:37.775Z,99.9657
2023-05-21T05:03:41.759Z,99.7907
2023-05-21T05:04:44.135Z,99.7024
2023-05-21T05:05:45.843Z,99.5334
2023-05-21T05:06:47.543Z,99.3771
2023-05-21T05:07:49.519Z,99.2422
2023-05-21T05:08:51.246Z,99.0969
2023-05-21T05:09:52.951Z,99.0096
2023-05-21T05:11:56.823Z,98.5953
2023-05-21T05:12:58.994Z,98.3979
2023-05-21T05:14:00.696Z,97.8753
2023-05-21T05:15:02.774Z,98.3704
2023-05-21T05:16:04.603Z,98.7409
2023-05-21T05:17:06.318Z,98.7199
2023-05-21T05:20:11.866Z,98.3712
2023-05-21T05:21:14.350Z,98.2055
2023-05-21T05:22:16.654Z,98.0027
2023-05-21T05:24:20.651Z,97.7779
2023-05-21T05:25:22.352Z,97.7180
2023-05-21T05:26:24.059Z,97.8046
2023-05-21T05:28:27.971Z,97.8127
2023-05-21T05:29:30.274Z,97.5204
2023-05-21T05:30:32.002Z,97.1465
2023-05-21T05:33:37.846Z,96.5178
2023-05-21T05:34:40.211Z,96.2461
2023-05-21T05:35:42.566Z,96.1205
2023-05-21T05:36:45.007Z,96.1705
2023-05-21T05:37:46.741Z,95.9830
2023-05-21T05:39:50.630Z,95.7882
2023-05-21T05:40:52.987Z,95.3594
2023-05-21T05:41:54.860Z,95.4405
2023-05-21T05:42:56.783Z,95.0833
2023-05-21T05:43:58.542Z,95.2582
2023-05-21T05:45:01.655Z,95.5788
2023-05-21T05:46:00.645Z,95.5497
2023-05-21T05:47:02.581Z,95.5118
2023-05-21T05:48:05.624Z,95.9188
2023-05-21T05:49:07.988Z,96.0586
2023-05-21T05:50:09.731Z,95.4396
2023-05-21T05:51:12.110Z,95.6632
2023-05-21T05:52:14.535Z,95.1105
2023-05-21T05:53:16.285Z,94.8809
2023-05-21T05:55:20.519Z,94.3966
2023-05-21T05:56:23.101Z,94.6061
2023-05-21T05:57:26.039Z,94.7997
2023-05-21T06:04:37.275Z,92.6779
2023-05-21T06:05:39.937Z,93.0938
2023-05-21T06:07:41.571Z,93.0698
2023-05-21T06:08:43.441Z,93.1794
2023-05-21T06:09:45.857Z,93.3917
2023-05-21T06:10:48.411Z,93.8948
2023-05-21T06:11:51.052Z,93.9581
2023-05-21T06:12:53.453Z,92.8462
2023-05-21T06:13:55.192Z,92.6997
2023-05-21T06:14:56.917Z,92.5179
2023-05-21T06:15:59.310Z,92.2718
2023-05-21T06:17:00.997Z,92.9236
2023-05-21T06:20:05.052Z,93.1292
2023-05-21T06:21:07.589Z,92.5256
2023-05-21T06:22:10.019Z,91.3721
2023-05-21T06:23:11.754Z,92.1452
2023-05-21T06:24:14.105Z,90.4187
2023-05-21T06:25:14.289Z,88.9232
2023-05-21T06:32:24.803Z,89.2431
2023-05-21T06:33:27.743Z,89.2282
2023-05-21T06:34:27.672Z,86.6061
2023-05-21T06:36:31.660Z,89.3959
2023-05-21T06:37:33.392Z,90.4487
2023-05-21T06:38:35.332Z,89.6968
2023-05-21T06:39:37.275Z,88.1208
2023-05-21T06:40:39.792Z,88.2774
2023-05-21T06:41:42.348Z,87.9427
2023-05-21T06:42:44.083Z,88.0815
2023-05-21T06:43:46.321Z,89.2192
2023-05-21T06:44:49.214Z,90.4053
2023-05-21T06:45:50.985Z,89.0463
2023-05-21T06:46:52.695Z,87.6847
2023-05-21T06:47:54.468Z,88.5508
2023-05-21T06:48:56.890Z,88.1231
2023-05-21T06:49:59.213Z,87.4957
2023-05-21T06:51:01.598Z,86.3808
2023-05-21T06:52:03.365Z,86.4003
2023-05-21T06:54:07.416Z,86.9369
2023-05-21T06:55:09.167Z,87.2005
2023-05-21T06:56:11.070Z,87.1683
2023-05-21T06:57:12.820Z,86.9143
2023-05-21T06:59:16.991Z,86.0361
2023-05-21T07:02:20.874Z,83.2178
2023-05-21T07:03:21.459Z,84.4988
2023-05-21T07:10:32.031Z,86.1193
2023-05-21T07:12:33.582Z,84.4250
2023-05-21T07:13:35.916Z,83.9490
2023-05-21T07:14:38.477Z,82.4898
2023-05-21T07:15:40.218Z,84.0401
2023-05-21T07:16:42.011Z,82.5938
2023-05-21T07:17:43.779Z,81.1718
2023-05-21T07:18:46.224Z,78.8067
2023-05-21T07:19:48.289Z,78.8733
2023-05-21T07:21:52.480Z,82.7830
2023-05-21T07:22:55.053Z,83.2319
2023-05-21T07:23:57.616Z,79.7887
2023-05-21T07:24:59.338Z,79.1877
2023-05-21T07:26:01.219Z,81.6596
2023-05-21T07:27:08.766Z,79.8888
2023-05-21T07:28:06.806Z,81.1991
2023-05-21T07:37:21.512Z,78.3205
2023-05-21T07:38:23.233Z,78.1419
2023-05-21T07:39:25.115Z,78.3861
2023-05-21T07:40:27.111Z,78.0941
2023-05-21T07:41:29.272Z,78.4386
2023-05-21T07:42:31.031Z,74.8277
2023-05-21T07:43:32.768Z,76.7202
2023-05-21T07:44:34.654Z,78.0262
2023-05-21T07:45:37.404Z,78.2404
2023-05-21T07:46:38.532Z,78.8724
2023-05-21T07:48:40.104Z,73.3346
2023-05-21T07:49:40.366Z,72.4447
2023-05-21T07:50:40.241Z,71.2064
2023-05-21T07:51:42.857Z,77.7699
2023-05-21T07:52:45.426Z,78.2674
2023-05-21T07:53:47.899Z,75.8941
2023-05-21T07:54:49.908Z,78.0517
2023-05-21T07:55:51.790Z,75.6895
2023-05-21T07:58:56.678Z,76.5413
2023-05-21T08:01:01.191Z,73.8536
2023-05-21T08:02:03.536Z,76.0614
2023-05-21T08:03:05.310Z,76.6444
2023-05-21T08:04:07.359Z,78.0826
2023-05-21T08:05:10.817Z,77.0171
2023-05-21T08:06:11.348Z,76.9926
2023-05-21T08:07:13.605Z,76.3578
2023-05-21T08:08:16.210Z,77.6705
2023-05-21T08:09:18.151Z,77.6645
2023-05-21T08:11:22.589Z,75.8414
2023-05-21T08:12:24.332Z,73.9637
2023-05-21T08:13:26.793Z,75.8439
2023-05-21T08:14:28.709Z,73.1927
2023-05-21T08:16:33.512Z,67.8411
2023-05-21T08:17:35.474Z,70.1432
2023-05-21T08:18:37.727Z,72.1295
2023-05-21T08:19:40.145Z,72.0326
2023-05-21T08:20:42.926Z,70.2790
2023-05-21T08:24:48.907Z,73.5925
2023-05-21T08:25:51.727Z,73.6806
2023-05-21T08:27:56.081Z,67.9380
2023-05-21T08:28:58.411Z,69.2478
2023-05-21T08:30:00.850Z,70.7956
2023-05-21T08:31:02.568Z,71.5129
2023-05-21T08:32:04.318Z,72.7461
2023-05-21T08:33:06.786Z,71.8850
2023-05-21T08:34:08.537Z,71.5389
2023-05-21T08:35:10.258Z,70.9561
2023-05-21T08:36:12.076Z,67.4868
2023-05-21T08:37:14.081Z,70.6819
2023-05-21T08:38:16.468Z,70.3820
2023-05-21T08:39:18.919Z,67.0794
2023-05-21T08:40:21.239Z,59.5308
2023-05-21T08:41:22.950Z,60.6662
2023-05-21T08:42:35.742Z,63.2327
2023-05-21T08:44:31.184Z,65.9380
2023-05-21T08:50:38.382Z,67.4050
2023-05-21T08:53:41.227Z,68.3812
2023-05-21T08:54:42.942Z,70.8256
2023-05-21T08:55:44.677Z,66.6726
2023-05-21T08:56:47.154Z,68.0708
2023-05-21T08:58:07.757Z,69.0904
2023-05-21T08:58:50.599Z,71.8018
2023-05-21T08:59:53.019Z,71.9028
2023-05-21T09:00:55.441Z,73.2411
2023-05-21T09:01:57.271Z,71.1733
2023-05-21T09:02:59.980Z,66.7129
2023-05-21T09:04:16.155Z,69.5320
2023-05-21T09:05:04.387Z,70.5049
2023-05-21T09:06:06.145Z,72.2806
2023-05-21T09:07:08.605Z,64.4392
2023-05-21T09:08:11.390Z,60.4917
2023-05-21T09:09:13.108Z,62.2692
2023-05-21T09:12:19.452Z,64.8084
2023-05-21T09:13:21.849Z,61.1165
2023-05-21T09:14:23.585Z,60.8292
2023-05-21T09:16:27.575Z,65.2052
2023-05-21T09:17:30.093Z,62.7854
2023-05-21T09:18:31.800Z,59.3928
2023-05-21T09:19:33.711Z,58.4783
2023-05-21T09:20:36.545Z,60.4402
2023-05-21T09:24:40.701Z,61.3280
2023-05-21T09:25:42.468Z,62.8530
2023-05-21T09:26:45.133Z,62.6864
2023-05-21T09:27:45.104Z,63.8556
2023-05-21T09:28:47.522Z,64.7894
2023-05-21T09:29:49.260Z,63.1943
2023-05-21T09:31:00.060Z,64.0647
2023-05-21T09:37:06.443Z,58.8285
2023-05-21T09:41:09.789Z,58.9856
2023-05-21T09:42:11.987Z,57.7411
2023-05-21T09:44:15.754Z,60.2645
2023-05-21T09:45:17.712Z,62.8650
2023-05-21T09:46:19.482Z,63.5995
2023-05-21T09:48:22.794Z,59.8337
2023-05-21T09:49:26.212Z,63.3477
2023-05-21T09:53:31.143Z,61.2757
2023-05-21T09:54:32.864Z,62.5022
2023-05-21T09:55:34.622Z,63.1680
2023-05-21T09:56:36.464Z,61.3790
2023-05-21T09:57:38.174Z,62.7231
2023-05-21T09:58:39.953Z,63.4672
2023-05-21T09:59:41.703Z,64.2758
2023-05-21T10:00:43.461Z,65.0855
2023-05-21T10:02:47.585Z,64.5875
2023-05-21T10:03:50.739Z,65.1782
2023-05-21T10:04:50.474Z,62.8786
2023-05-21T10:06:54.399Z,60.2957
2023-05-21T10:07:56.735Z,60.4909
2023-05-21T10:08:59.085Z,61.2046
2023-05-21T10:10:00.825Z,60.8703
2023-05-21T10:11:02.687Z,58.4563
2023-05-21T10:12:05.467Z,59.3814
2023-05-21T10:13:07.897Z,55.0469
2023-05-21T10:14:09.649Z,60.2213
2023-05-21T10:15:11.374Z,61.8538
2023-05-21T10:16:13.865Z,61.3614
2023-05-21T10:17:16.382Z,61.0529
2023-05-21T10:18:18.708Z,63.2747
2023-05-21T10:19:21.220Z,63.0282
2023-05-21T10:20:22.970Z,61.5959
2023-05-21T10:21:25.271Z,62.0508
2023-05-21T10:22:27.708Z,62.6592
2023-05-21T10:23:29.529Z,61.4079
2023-05-21T10:24:31.248Z,59.9671
2023-05-21T10:26:35.340Z,61.6459
2023-05-21T10:27:37.944Z,61.7817
2023-05-21T10:28:40.407Z,61.3829
2023-05-21T10:29:42.615Z,62.9164
2023-05-21T10:30:45.135Z,62.9485
2023-05-21T10:31:47.573Z,62.1401
2023-05-21T10:32:50.372Z,58.2837
2023-05-21T10:34:04.982Z,57.9730
2023-05-21T10:35:55.146Z,61.1487
2023-05-21T10:36:57.969Z,62.4654
2023-05-21T10:39:20.814Z,60.4236
2023-05-21T10:40:01.081Z,60.2300
2023-05-21T10:41:02.809Z,59.6769
2023-05-21T10:42:05.191Z,59.5418
2023-05-21T10:43:07.527Z,57.7691
2023-05-21T10:44:10.067Z,55.5042
2023-05-21T10:45:11.834Z,59.0578
2023-05-21T10:46:13.611Z,59.6033
2023-05-21T10:47:16.069Z,60.8449
2023-05-21T10:48:18.970Z,61.6448
2023-05-21T10:51:21.205Z,56.5302
2023-05-21T10:52:22.960Z,52.3750
2023-05-21T10:53:24.826Z,52.8646
2023-05-21T10:54:26.669Z,52.6743
2023-05-21T10:55:28.965Z,55.1605
2023-05-21T10:56:30.673Z,56.5703
2023-05-21T10:57:33.067Z,60.7204
2023-05-21T10:58:34.847Z,62.7955
2023-05-21T10:59:36.609Z,62.4845
2023-05-21T11:00:38.464Z,62.4629
2023-05-21T11:03:44.880Z,59.8830
2023-05-21T11:04:46.637Z,59.2420
2023-05-21T11:05:48.466Z,62.7896
2023-05-21T11:06:50.231Z,62.8507
2023-05-21T11:07:52.126Z,62.0597
2023-05-21T11:08:55.362Z,60.8974
2023-05-21T11:09:54.714Z,60.8241
2023-05-21T11:10:58.564Z,59.6479
2023-05-21T11:11:58.216Z,58.9581
2023-05-21T11:13:00.601Z,59.0461
2023-05-21T11:14:03.152Z,59.7876
2023-05-21T11:15:05.455Z,60.2683
2023-05-21T11:17:09.685Z,59.2398
2023-05-21T11:18:12.668Z,60.0849
2023-05-21T11:27:27.550Z,60.7331
2023-05-21T11:28:29.322Z,59.2608
2023-05-21T11:29:31.109Z,59.8716
2023-05-21T11:30:35.238Z,59.8709
2023-05-21T11:31:35.441Z,60.1442
2023-05-21T11:32:37.170Z,60.3960
2023-05-21T11:33:38.910Z,58.4589
2023-05-21T11:34:40.657Z,56.9691
2023-05-21T11:36:44.838Z,57.4244
2023-05-21T11:37:47.233Z,56.6751
2023-05-21T11:38:49.684Z,57.9846
2023-05-21T11:39:52.744Z,57.3168
2023-05-21T11:40:52.862Z,54.4357
2023-05-21T11:41:53.409Z,54.5862
2023-05-21T11:44:57.199Z,49.5515
2023-05-21T11:49:43.362Z,54.6576
2023-05-21T11:50:44.248Z,58.1125
2023-05-21T11:51:46.206Z,58.3126
2023-05-21T11:52:48.871Z,55.4970
2023-05-21T11:53:51.512Z,54.8452
2023-05-21T11:54:53.344Z,54.1446
2023-05-21T11:55:55.278Z,52.9317
2023-05-21T11:56:57.272Z,54.5346
2023-05-21T11:57:59.682Z,50.4105
2023-05-21T11:59:00.629Z,50.9271
2023-05-21T12:00:00.835Z,49.3512
2023-05-21T12:01:03.672Z,52.1818
2023-05-21T12:02:06.262Z,51.4645
2023-05-21T12:03:08.993Z,47.0233
2023-05-21T12:04:10.852Z,48.1116
2023-05-21T12:05:13.338Z,48.1304
2023-05-21T12:07:17.659Z,51.1314
2023-05-21T12:12:24.204Z,49.9154
2023-05-21T12:13:26.572Z,51.6768
2023-05-21T12:18:35.482Z,52.4455
2023-05-21T12:20:37.316Z,52.0410
2023-05-21T12:22:38.493Z,51.1927
2023-05-21T12:25:44.153Z,50.8191
2023-05-21T12:26:46.156Z,52.5000
2023-05-21T12:27:48.106Z,52.5062
2023-05-21T12:28:48.186Z,51.6236
2023-05-21T12:29:50.016Z,53.0798
2023-05-21T12:30:52.304Z,52.4261
2023-05-21T12:31:54.265Z,52.9843
2023-05-21T12:32:57.203Z,51.7600
2023-05-21T12:33:59.598Z,50.9154
2023-05-21T12:35:02.232Z,51.3093
2023-05-21T12:36:04.762Z,53.0560
2023-05-21T12:37:07.171Z,52.1920
2023-05-21T12:43:15.219Z,53.4607
2023-05-21T12:44:17.231Z,53.1368
2023-05-21T12:45:19.242Z,54.1883
2023-05-21T12:46:21.763Z,53.0349
2023-05-21T12:47:24.368Z,58.0495
2023-05-21T12:48:26.946Z,51.8586
2023-05-21T12:49:29.857Z,55.0643
2023-05-21T12:50:30.540Z,57.0040
2023-05-21T12:51:32.981Z,54.1234
2023-05-21T12:52:34.796Z,54.6419
2023-05-21T12:53:36.555Z,51.3558
2023-05-21T12:54:39.688Z,52.7431
2023-05-21T12:58:44.769Z,55.5801
2023-05-21T12:59:47.124Z,55.8042
2023-05-21T13:00:49.499Z,55.3278
2023-05-21T13:01:52.143Z,55.0083
2023-05-21T13:02:54.878Z,57.0567
2023-05-21T13:03:57.638Z,54.9275
2023-05-21T13:04:57.229Z,56.1154
2023-05-21T13:06:00.045Z,54.8275
2023-05-21T13:07:04.849Z,55.1742
2023-05-21T13:08:04.836Z,53.7735
2023-05-21T13:09:06.556Z,52.5535
2023-05-21T13:10:08.324Z,55.7091
2023-05-21T13:11:10.964Z,54.1254
2023-05-21T13:12:12.835Z,55.0526
2023-05-21T13:13:14.612Z,54.7161
2023-05-21T13:14:16.453Z,53.5452
2023-05-21T13:15:18.879Z,54.3434
2023-05-21T13:16:21.648Z,52.7862
2023-05-21T13:24:35.091Z,56.5030
2023-05-21T13:26:36.661Z,56.0241
2023-05-21T13:27:39.177Z,55.3197
2023-05-21T13:28:42.673Z,54.7908
2023-05-21T13:29:42.516Z,55.2122
2023-05-21T13:30:45.019Z,54.9592
2023-05-21T13:31:47.533Z,56.0326
2023-05-21T13:32:49.472Z,53.8546
2023-05-21T13:33:51.454Z,55.6168
2023-05-21T13:35:55.851Z,52.8468
2023-05-21T13:36:58.452Z,52.8339
2023-05-21T13:38:01.054Z,55.4570
2023-05-21T13:39:03.449Z,57.0495
2023-05-21T13:40:05.273Z,55.3807
2023-05-21T13:41:07.688Z,49.8463
2023-05-21T13:42:10.278Z,50.0647
2023-05-21T13:43:12.866Z,51.6192
2023-05-21T13:44:15.374Z,49.0227
2023-05-21T13:45:17.177Z,52.6726
2023-05-21T13:46:19.048Z,52.3073
2023-05-21T13:47:21.374Z,51.8350
2023-05-21T13:48:23.875Z,51.7827
2023-05-21T13:49:26.373Z,52.5668
2023-05-21T13:51:38.806Z,51.0624
2023-05-21T13:52:30.463Z,51.8968
2023-05-21T13:53:32.942Z,51.6584
2023-05-21T13:54:33.721Z,51.6258
2023-05-21T13:55:33.530Z,51.2324
2023-05-21T13:56:35.277Z,50.1509
2023-05-21T13:57:37.959Z,50.2199
2023-05-21T13:58:39.790Z,51.6610
2023-05-21T14:00:44.006Z,54.3643
2023-05-21T14:01:44.535Z,58.8652
2023-05-21T14:02:44.314Z,52.5359
2023-05-21T14:03:46.880Z,53.0493
2023-05-21T14:04:49.559Z,50.9293
2023-05-21T14:05:51.534Z,47.9221
2023-05-21T14:06:53.348Z,49.1086
2023-05-21T14:07:55.935Z,57.4363
2023-05-21T14:10:59.491Z,48.3718
2023-05-21T14:12:01.731Z,51.8564
2023-05-21T14:13:15.370Z,49.4170
2023-05-21T14:14:04.434Z,46.1004
2023-05-21T14:15:06.975Z,46.5695
2023-05-21T14:16:08.810Z,47.6715
2023-05-21T14:18:11.668Z,46.8461
2023-05-21T14:19:15.100Z,48.1215
2023-05-21T14:28:28.786Z,43.9597
2023-05-21T14:29:31.265Z,45.9196
2023-05-21T14:30:33.615Z,45.0717
2023-05-21T14:31:36.108Z,45.4654
2023-05-21T14:33:39.562Z,44.6637
2023-05-21T14:34:41.352Z,44.1276
2023-05-21T14:35:44.404Z,44.6519
2023-05-21T14:39:48.437Z,45.5356
2023-05-21T14:40:51.093Z,44.6251
2023-05-21T14:41:53.751Z,44.0326
2023-05-21T14:42:56.089Z,48.2654
2023-05-21T14:43:58.497Z,44.8066
2023-05-21T14:45:16.816Z,46.3650
2023-05-21T14:47:05.956Z,40.5579
2023-05-21T14:48:08.593Z,47.1809
2023-05-21T14:49:11.532Z,42.6918
2023-05-21T14:55:21.532Z,52.0053
2023-05-21T14:56:23.981Z,45.6078
2023-05-21T14:57:26.456Z,56.1436
2023-05-21T14:59:28.742Z,50.6912
2023-05-21T15:00:32.028Z,50.3876
2023-05-21T15:08:45.557Z,64.9497
2023-05-21T15:12:53.609Z,62.9221
2023-05-21T15:15:57.189Z,61.7528
2023-05-21T15:16:59.679Z,60.3095
2023-05-21T15:18:02.364Z,63.5118
2023-05-21T15:20:04.612Z,47.8433
2023-05-21T15:21:07.082Z,56.8461
2023-05-21T15:22:09.547Z,51.7682
2023-05-21T15:23:17.290Z,45.8088
2023-05-21T15:24:14.171Z,47.3444
2023-05-21T15:25:18.316Z,51.8146
2023-05-21T15:26:17.981Z,55.8745
2023-05-21T15:27:20.941Z,55.9494
2023-05-21T15:29:22.515Z,45.0186
2023-05-21T15:30:25.038Z,44.0191
2023-05-21T15:31:27.131Z,45.2236
2023-05-21T15:32:29.152Z,43.2370
2023-05-21T15:33:31.677Z,40.9146
2023-05-21T15:34:33.358Z,40.2617
2023-05-21T15:35:35.349Z,40.1500
2023-05-21T15:36:37.378Z,42.1839
2023-05-21T15:37:39.231Z,39.8205
2023-05-21T15:38:41.564Z,39.5134
2023-05-21T15:39:44.137Z,40.8801
2023-05-21T15:42:48.530Z,41.1138
2023-05-21T15:43:50.989Z,41.6058
2023-05-21T15:44:52.861Z,43.0045
2023-05-21T15:46:56.651Z,42.4329
2023-05-21T15:47:58.472Z,42.9359
2023-05-21T15:49:01.601Z,45.0956
2023-05-21T15:51:02.280Z,41.8211
2023-05-21T15:52:04.408Z,41.1272
2023-05-21T15:53:06.277Z,40.0993
2023-05-21T15:54:19.872Z,40.0404
2023-05-21T15:55:11.161Z,41.7359
2023-05-21T15:56:12.950Z,41.2800
2023-05-21T15:57:14.800Z,42.9518
2023-05-21T15:58:39.853Z,42.8804
2023-05-21T16:00:21.612Z,41.5577
2023-05-21T16:01:23.679Z,41.6940
2023-05-21T16:02:25.601Z,42.2112
2023-05-21T16:03:27.478Z,43.3985
2023-05-21T16:04:29.834Z,42.7939
2023-05-21T16:05:31.609Z,44.2786
2023-05-21T16:06:33.438Z,42.7338
2023-05-21T16:07:37.967Z,39.7477
2023-05-21T16:08:37.999Z,41.2637
2023-05-21T16:09:39.776Z,42.8039
2023-05-21T16:10:41.643Z,42.6676
2023-05-21T16:11:44.041Z,43.8604
2023-05-21T16:12:46.084Z,42.5784
2023-05-21T16:13:48.598Z,43.8831
2023-05-21T16:14:51.048Z,43.0013
2023-05-21T16:15:52.859Z,45.7966
2023-05-21T16:16:55.449Z,44.6231
2023-05-21T16:17:58.075Z,50.1786
2023-05-21T16:19:00.517Z,47.2557
2023-05-21T16:20:03.181Z,46.2575
2023-05-21T16:21:05.093Z,46.1428
2023-05-21T16:22:07.864Z,43.5965
2023-05-21T16:23:08.274Z,42.9036
2023-05-21T16:24:10.079Z,45.8932
2023-05-21T16:25:11.891Z,46.1533
2023-05-21T16:26:13.968Z,45.1972
2023-05-21T16:27:16.971Z,48.1535
2023-05-21T16:29:18.209Z,49.5454
2023-05-21T16:30:20.635Z,48.9923
2023-05-21T16:31:23.346Z,48.6428
2023-05-21T16:32:25.177Z,48.9673
2023-05-21T16:33:27.038Z,51.6469
2023-05-21T16:35:31.188Z,56.5722
2023-05-21T16:36:32.991Z,53.8657